sensor_id;sensor_type;location;lat;lon;timestamp;P1;P2;P0
50866;PMS7003;36839;51.946;21.002;2023-11-19T00:00:53;55.00;45.00;27.00
50866;PMS7003;36839;51.946;21.002;2023-11-19T00:03:55;49.50;36.00;23.00
50866;PMS7003;36839;51.946;21.002;2023-11-19T00:06:39;54.00;40.50;23.50
50866;PMS7003;36839;51.946;21.002;2023-11-19T00:09:14;49.00;36.50;24.00
50866;PMS7003;36839;51.946;21.002;2023-11-19T00:11:48;56.50;39.00;24.50
50866;PMS7003;36839;51.946;21.002;2023-11-19T00:14:18;54.00;41.50;26.00
50866;PMS7003;36839;51.946;21.002;2023-11-19T00:16:52;43.00;37.00;23.00
50866;PMS7003;36839;51.946;21.002;2023-11-19T00:19:21;64.50;47.50;29.50
50866;PMS7003;36839;51.946;21.002;2023-11-19T00:21:55;54.00;41.00;27.00
50866;PMS7003;36839;51.946;21.002;2023-11-19T00:24:32;62.00;46.00;27.00
50866;PMS7003;36839;51.946;21.002;2023-11-19T00:27:03;61.00;47.00;28.00
50866;PMS7003;36839;51.946;21.002;2023-11-19T00:29:34;62.00;46.00;27.00
50866;PMS7003;36839;51.946;21.002;2023-11-19T00:32:07;56.00;39.50;26.50
50866;PMS7003;36839;51.946;21.002;2023-11-19T00:34:52;59.00;44.00;22.00
50866;PMS7003;36839;51.946;21.002;2023-11-19T00:37:27;60.00;43.50;26.00
50866;PMS7003;36839;51.946;21.002;2023-11-19T00:40:08;57.00;42.50;26.00
50866;PMS7003;36839;51.946;21.002;2023-11-19T00:43:22;54.00;42.50;24.50
50866;PMS7003;36839;51.946;21.002;2023-11-19T00:45:54;48.00;38.00;23.00
50866;PMS7003;36839;51.946;21.002;2023-11-19T00:51:20;38.00;30.00;15.50
50866;PMS7003;36839;51.946;21.002;2023-11-19T00:53:52;58.00;42.00;26.00
50866;PMS7003;36839;51.946;21.002;2023-11-19T00:56:33;62.00;44.00;28.00
50866;PMS7003;36839;51.946;21.002;2023-11-19T01:02:01;61.00;47.00;29.00
50866;PMS7003;36839;51.946;21.002;2023-11-19T01:04:44;60.00;46.00;30.00
50866;PMS7003;36839;51.946;21.002;2023-11-19T01:07:16;61.00;45.00;28.00
50866;PMS7003;36839;51.946;21.002;2023-11-19T01:09:47;57.00;45.00;28.00
50866;PMS7003;36839;51.946;21.002;2023-11-19T01:12:24;63.50;44.00;26.00
50866;PMS7003;36839;51.946;21.002;2023-11-19T01:17:37;54.00;41.00;25.00
50866;PMS7003;36839;51.946;21.002;2023-11-19T01:20:08;58.50;40.00;26.00
50866;PMS7003;36839;51.946;21.002;2023-11-19T01:22:50;50.00;38.00;25.00
50866;PMS7003;36839;51.946;21.002;2023-11-19T01:25:26;61.00;42.00;26.00
50866;PMS7003;36839;51.946;21.002;2023-11-19T01:27:56;57.00;44.50;28.00
50866;PMS7003;36839;51.946;21.002;2023-11-19T01:30:29;64.00;46.50;27.50
50866;PMS7003;36839;51.946;21.002;2023-11-19T01:33:12;32.00;17.00;0.00
50866;PMS7003;36839;51.946;21.002;2023-11-19T01:35:48;56.50;43.00;26.50
50866;PMS7003;36839;51.946;21.002;2023-11-19T01:38:38;55.50;40.00;24.50
50866;PMS7003;36839;51.946;21.002;2023-11-19T01:41:08;58.00;45.00;27.00
50866;PMS7003;36839;51.946;21.002;2023-11-19T01:43:41;58.00;41.50;27.00
50866;PMS7003;36839;51.946;21.002;2023-11-19T01:46:15;61.00;42.00;24.00
50866;PMS7003;36839;51.946;21.002;2023-11-19T01:48:45;65.00;48.00;27.00
50866;PMS7003;36839;51.946;21.002;2023-11-19T01:51:29;61.00;45.50;27.00
50866;PMS7003;36839;51.946;21.002;2023-11-19T01:53:58;48.00;40.00;25.00
50866;PMS7003;36839;51.946;21.002;2023-11-19T01:56:38;52.00;42.00;26.00
50866;PMS7003;36839;51.946;21.002;2023-11-19T01:59:24;59.00;45.00;27.00
50866;PMS7003;36839;51.946;21.002;2023-11-19T02:02:04;58.00;42.00;28.00
50866;PMS7003;36839;51.946;21.002;2023-11-19T02:04:39;59.00;42.00;25.00
50866;PMS7003;36839;51.946;21.002;2023-11-19T02:07:11;60.00;46.00;27.00
50866;PMS7003;36839;51.946;21.002;2023-11-19T02:09:43;51.50;38.00;23.00
50866;PMS7003;36839;51.946;21.002;2023-11-19T02:12:16;50.00;36.00;25.00
50866;PMS7003;36839;51.946;21.002;2023-11-19T02:15:16;56.00;42.50;25.50
50866;PMS7003;36839;51.946;21.002;2023-11-19T02:18:19;52.00;37.00;23.00
50866;PMS7003;36839;51.946;21.002;2023-11-19T02:21:18;51.00;39.50;23.00
50866;PMS7003;36839;51.946;21.002;2023-11-19T02:24:09;48.50;38.00;24.00
50866;PMS7003;36839;51.946;21.002;2023-11-19T02:27:02;54.00;41.50;25.50
50866;PMS7003;36839;51.946;21.002;2023-11-19T02:29:37;54.50;42.00;25.00
50866;PMS7003;36839;51.946;21.002;2023-11-19T02:35:27;51.00;39.00;26.00
50866;PMS7003;36839;51.946;21.002;2023-11-19T02:43:51;57.00;38.50;23.00
50866;PMS7003;36839;51.946;21.002;2023-11-19T02:46:43;52.00;38.00;24.00
50866;PMS7003;36839;51.946;21.002;2023-11-19T02:49:32;61.00;42.00;24.00
50866;PMS7003;36839;51.946;21.002;2023-11-19T02:52:17;50.00;38.00;25.00
50866;PMS7003;36839;51.946;21.002;2023-11-19T02:54:48;53.50;40.00;24.50
50866;PMS7003;36839;51.946;21.002;2023-11-19T02:57:37;57.00;44.00;25.00
50866;PMS7003;36839;51.946;21.002;2023-11-19T03:00:22;57.00;42.50;24.50
50866;PMS7003;36839;51.946;21.002;2023-11-19T03:03:05;45.00;36.00;19.00
50866;PMS7003;36839;51.946;21.002;2023-11-19T03:08:23;60.00;42.00;25.00
50866;PMS7003;36839;51.946;21.002;2023-11-19T03:11:00;47.00;38.00;23.00
50866;PMS7003;36839;51.946;21.002;2023-11-19T03:13:44;51.00;41.00;24.50
50866;PMS7003;36839;51.946;21.002;2023-11-19T03:16:25;46.00;39.00;22.00
50866;PMS7003;36839;51.946;21.002;2023-11-19T03:19:01;56.00;40.00;24.00
50866;PMS7003;36839;51.946;21.002;2023-11-19T03:21:45;53.67;42.33;25.00
50866;PMS7003;36839;51.946;21.002;2023-11-19T03:24:13;51.00;40.00;24.00
50866;PMS7003;36839;51.946;21.002;2023-11-19T03:26:49;56.50;43.00;26.00
50866;PMS7003;36839;51.946;21.002;2023-11-19T03:29:27;56.00;42.00;25.00
50866;PMS7003;36839;51.946;21.002;2023-11-19T03:32:10;46.00;38.00;23.00
50866;PMS7003;36839;51.946;21.002;2023-11-19T03:34:56;59.00;44.00;25.50
50866;PMS7003;36839;51.946;21.002;2023-11-19T03:37:56;56.00;38.00;23.50
50866;PMS7003;36839;51.946;21.002;2023-11-19T03:40:50;59.50;45.00;26.50
50866;PMS7003;36839;51.946;21.002;2023-11-19T03:43:18;47.50;38.00;22.00
50866;PMS7003;36839;51.946;21.002;2023-11-19T03:46:15;62.50;44.50;25.00
50866;PMS7003;36839;51.946;21.002;2023-11-19T03:48:47;53.00;42.00;25.00
50866;PMS7003;36839;51.946;21.002;2023-11-19T03:51:32;43.00;34.00;23.00
50866;PMS7003;36839;51.946;21.002;2023-11-19T03:54:09;56.00;42.00;25.00
50866;PMS7003;36839;51.946;21.002;2023-11-19T03:56:59;47.00;38.00;23.50
50866;PMS7003;36839;51.946;21.002;2023-11-19T04:00:00;46.50;40.00;23.50
50866;PMS7003;36839;51.946;21.002;2023-11-19T04:08:17;55.00;37.00;23.00
50866;PMS7003;36839;51.946;21.002;2023-11-19T04:10:50;53.50;39.50;24.00
50866;PMS7003;36839;51.946;21.002;2023-11-19T04:13:22;53.00;40.00;23.00
50866;PMS7003;36839;51.946;21.002;2023-11-19T04:16:11;50.50;39.00;26.00
50866;PMS7003;36839;51.946;21.002;2023-11-19T04:18:59;54.50;38.00;23.00
50866;PMS7003;36839;51.946;21.002;2023-11-19T04:21:36;48.50;37.50;23.00
50866;PMS7003;36839;51.946;21.002;2023-11-19T04:24:49;49.00;38.00;23.00
50866;PMS7003;36839;51.946;21.002;2023-11-19T04:27:37;52.50;38.50;22.00
50866;PMS7003;36839;51.946;21.002;2023-11-19T04:30:24;40.00;31.50;19.00
50866;PMS7003;36839;51.946;21.002;2023-11-19T04:33:12;49.00;38.00;23.00
50866;PMS7003;36839;51.946;21.002;2023-11-19T04:35:45;32.00;29.00;16.00
50866;PMS7003;36839;51.946;21.002;2023-11-19T04:38:13;44.00;30.00;16.00
50866;PMS7003;36839;51.946;21.002;2023-11-19T04:40:41;39.00;35.00;18.00
50866;PMS7003;36839;51.946;21.002;2023-11-19T04:43:08;50.00;39.00;24.00
50866;PMS7003;36839;51.946;21.002;2023-11-19T04:45:46;42.00;34.00;21.00
50866;PMS7003;36839;51.946;21.002;2023-11-19T04:48:21;40.00;35.00;21.00
50866;PMS7003;36839;51.946;21.002;2023-11-19T04:50:51;44.50;33.00;20.00
50866;PMS7003;36839;51.946;21.002;2023-11-19T04:53:49;42.00;32.00;17.00
50866;PMS7003;36839;51.946;21.002;2023-11-19T04:56:23;35.00;27.00;17.00
50866;PMS7003;36839;51.946;21.002;2023-11-19T04:59:13;37.67;35.00;20.33
50866;PMS7003;36839;51.946;21.002;2023-11-19T05:01:56;42.50;29.00;21.00
50866;PMS7003;36839;51.946;21.002;2023-11-19T05:04:29;32.00;28.00;16.00
50866;PMS7003;36839;51.946;21.002;2023-11-19T05:07:08;25.50;20.00;12.00
50866;PMS7003;36839;51.946;21.002;2023-11-19T05:09:43;21.00;16.00;12.00
50866;PMS7003;36839;51.946;21.002;2023-11-19T05:12:24;24.00;21.00;15.00
50866;PMS7003;36839;51.946;21.002;2023-11-19T05:15:00;22.00;18.50;13.00
50866;PMS7003;36839;51.946;21.002;2023-11-19T05:17:50;28.00;22.00;11.50
50866;PMS7003;36839;51.946;21.002;2023-11-19T05:20:36;26.00;22.00;15.00
50866;PMS7003;36839;51.946;21.002;2023-11-19T05:23:07;26.00;19.00;12.00
50866;PMS7003;36839;51.946;21.002;2023-11-19T05:25:42;18.50;18.50;13.00
50866;PMS7003;36839;51.946;21.002;2023-11-19T05:28:19;30.00;22.00;14.00
50866;PMS7003;36839;51.946;21.002;2023-11-19T05:30:55;23.50;23.50;16.00
50866;PMS7003;36839;51.946;21.002;2023-11-19T05:33:35;24.00;18.50;14.00
50866;PMS7003;36839;51.946;21.002;2023-11-19T05:36:08;21.00;19.00;13.00
50866;PMS7003;36839;51.946;21.002;2023-11-19T05:38:38;22.50;18.50;12.50
50866;PMS7003;36839;51.946;21.002;2023-11-19T05:41:18;15.00;15.00;12.00
50866;PMS7003;36839;51.946;21.002;2023-11-19T05:43:48;22.00;17.00;12.50
50866;PMS7003;36839;51.946;21.002;2023-11-19T05:46:23;23.00;19.00;14.00
50866;PMS7003;36839;51.946;21.002;2023-11-19T05:49:16;25.00;18.00;15.00
50866;PMS7003;36839;51.946;21.002;2023-11-19T05:51:48;20.00;15.00;10.00
50866;PMS7003;36839;51.946;21.002;2023-11-19T05:54:27;24.00;19.00;14.00
50866;PMS7003;36839;51.946;21.002;2023-11-19T05:57:09;20.50;20.50;16.00
50866;PMS7003;36839;51.946;21.002;2023-11-19T05:59:44;30.00;25.00;17.00
50866;PMS7003;36839;51.946;21.002;2023-11-19T06:02:17;33.50;27.00;16.50
50866;PMS7003;36839;51.946;21.002;2023-11-19T06:04:52;36.00;27.50;18.00
50866;PMS7003;36839;51.946;21.002;2023-11-19T06:07:31;28.00;23.00;17.00
50866;PMS7003;36839;51.946;21.002;2023-11-19T06:10:13;29.50;24.50;17.00
50866;PMS7003;36839;51.946;21.002;2023-11-19T06:13:01;29.50;29.00;18.50
50866;PMS7003;36839;51.946;21.002;2023-11-19T06:15:40;33.00;27.00;17.00
50866;PMS7003;36839;51.946;21.002;2023-11-19T06:18:17;34.50;25.00;17.00
50866;PMS7003;36839;51.946;21.002;2023-11-19T06:20:54;29.50;24.00;12.00
50866;PMS7003;36839;51.946;21.002;2023-11-19T06:23:43;25.00;23.00;17.00
50866;PMS7003;36839;51.946;21.002;2023-11-19T06:26:20;28.00;19.00;13.00
50866;PMS7003;36839;51.946;21.002;2023-11-19T06:28:57;33.67;23.33;14.00
50866;PMS7003;36839;51.946;21.002;2023-11-19T06:31:30;18.50;16.00;10.50
50866;PMS7003;36839;51.946;21.002;2023-11-19T06:34:03;28.50;24.00;13.00
50866;PMS7003;36839;51.946;21.002;2023-11-19T06:37:02;29.00;19.00;11.00
50866;PMS7003;36839;51.946;21.002;2023-11-19T06:39:41;17.67;15.33;9.00
50866;PMS7003;36839;51.946;21.002;2023-11-19T06:42:14;19.00;18.00;14.00
50866;PMS7003;36839;51.946;21.002;2023-11-19T06:45:10;27.00;22.00;16.00
50866;PMS7003;36839;51.946;21.002;2023-11-19T06:48:14;24.00;19.00;13.00
50866;PMS7003;36839;51.946;21.002;2023-11-19T06:50:56;28.00;19.00;13.00
50866;PMS7003;36839;51.946;21.002;2023-11-19T06:53:45;25.50;22.00;14.00
50866;PMS7003;36839;51.946;21.002;2023-11-19T06:56:31;23.50;19.00;12.50
50866;PMS7003;36839;51.946;21.002;2023-11-19T06:59:14;24.00;22.50;14.50
50866;PMS7003;36839;51.946;21.002;2023-11-19T07:01:55;22.50;20.00;13.00
50866;PMS7003;36839;51.946;21.002;2023-11-19T07:14:07;23.33;18.67;13.33
50866;PMS7003;36839;51.946;21.002;2023-11-19T07:16:41;22.00;15.00;9.50
50866;PMS7003;36839;51.946;21.002;2023-11-19T07:21:53;22.50;19.00;12.50
50866;PMS7003;36839;51.946;21.002;2023-11-19T07:24:32;28.00;20.50;13.00
50866;PMS7003;36839;51.946;21.002;2023-11-19T07:27:16;35.00;23.00;16.00
50866;PMS7003;36839;51.946;21.002;2023-11-19T07:30:05;30.50;24.50;16.50
50866;PMS7003;36839;51.946;21.002;2023-11-19T07:35:28;20.00;19.00;8.00
50866;PMS7003;36839;51.946;21.002;2023-11-19T07:38:17;25.00;21.00;14.00
50866;PMS7003;36839;51.946;21.002;2023-11-19T07:46:43;29.50;26.00;16.00
50866;PMS7003;36839;51.946;21.002;2023-11-19T07:49:30;29.00;23.50;14.50
50866;PMS7003;36839;51.946;21.002;2023-11-19T07:52:45;32.00;27.00;16.00
50866;PMS7003;36839;51.946;21.002;2023-11-19T07:55:34;33.00;24.00;14.00
50866;PMS7003;36839;51.946;21.002;2023-11-19T07:58:26;27.00;23.50;15.00
50866;PMS7003;36839;51.946;21.002;2023-11-19T08:01:21;35.50;21.50;12.00
50866;PMS7003;36839;51.946;21.002;2023-11-19T08:03:58;26.00;24.00;13.00
50866;PMS7003;36839;51.946;21.002;2023-11-19T08:06:36;27.00;23.00;17.00
50866;PMS7003;36839;51.946;21.002;2023-11-19T08:09:41;30.00;24.50;17.00
50866;PMS7003;36839;51.946;21.002;2023-11-19T08:12:33;23.00;23.00;15.00
50866;PMS7003;36839;51.946;21.002;2023-11-19T08:17:55;23.00;21.00;14.00
50866;PMS7003;36839;51.946;21.002;2023-11-19T08:20:33;25.00;24.00;14.00
50866;PMS7003;36839;51.946;21.002;2023-11-19T08:23:10;20.00;18.00;13.00
50866;PMS7003;36839;51.946;21.002;2023-11-19T08:28:29;26.00;19.00;14.00
50866;PMS7003;36839;51.946;21.002;2023-11-19T08:31:02;31.50;22.50;15.00
50866;PMS7003;36839;51.946;21.002;2023-11-19T08:33:39;25.00;21.00;16.00
50866;PMS7003;36839;51.946;21.002;2023-11-19T08:36:17;34.00;23.00;15.00
50866;PMS7003;36839;51.946;21.002;2023-11-19T08:39:18;21.00;19.00;13.00
50866;PMS7003;36839;51.946;21.002;2023-11-19T08:42:12;25.00;20.00;13.00
50866;PMS7003;36839;51.946;21.002;2023-11-19T08:44:57;32.00;24.00;15.00
50866;PMS7003;36839;51.946;21.002;2023-11-19T08:47:33;27.00;23.00;16.00
50866;PMS7003;36839;51.946;21.002;2023-11-19T08:50:24;30.00;26.00;19.00
50866;PMS7003;36839;51.946;21.002;2023-11-19T08:53:06;22.00;20.00;12.00
50866;PMS7003;36839;51.946;21.002;2023-11-19T08:55:50;33.00;28.00;18.50
50866;PMS7003;36839;51.946;21.002;2023-11-19T08:58:31;27.00;22.00;16.00
50866;PMS7003;36839;51.946;21.002;2023-11-19T09:01:02;29.00;25.50;17.00
50866;PMS7003;36839;51.946;21.002;2023-11-19T09:03:43;32.00;22.00;14.50
50866;PMS7003;36839;51.946;21.002;2023-11-19T09:06:39;34.00;26.00;17.00
50866;PMS7003;36839;51.946;21.002;2023-11-19T09:09:14;29.00;26.00;15.00
50866;PMS7003;36839;51.946;21.002;2023-11-19T09:12:10;32.00;28.00;18.00
50866;PMS7003;36839;51.946;21.002;2023-11-19T09:15:02;39.00;28.00;18.50
50866;PMS7003;36839;51.946;21.002;2023-11-19T09:17:43;34.00;26.00;17.50
50866;PMS7003;36839;51.946;21.002;2023-11-19T09:20:18;34.00;28.00;18.00
50866;PMS7003;36839;51.946;21.002;2023-11-19T09:22:49;32.00;25.00;17.00
50866;PMS7003;36839;51.946;21.002;2023-11-19T09:25:18;33.00;28.00;16.00
50866;PMS7003;36839;51.946;21.002;2023-11-19T09:27:54;31.00;25.00;16.00
50866;PMS7003;36839;51.946;21.002;2023-11-19T09:30:43;30.50;25.50;19.50
50866;PMS7003;36839;51.946;21.002;2023-11-19T09:33:11;24.50;21.00;12.50
50866;PMS7003;36839;51.946;21.002;2023-11-19T09:35:42;34.50;29.00;17.50
50866;PMS7003;36839;51.946;21.002;2023-11-19T09:38:21;37.00;27.00;18.00
50866;PMS7003;36839;51.946;21.002;2023-11-19T09:43:57;36.00;30.50;19.50
50866;PMS7003;36839;51.946;21.002;2023-11-19T09:46:43;38.00;30.50;20.00
50866;PMS7003;36839;51.946;21.002;2023-11-19T09:49:18;35.00;25.00;16.00
50866;PMS7003;36839;51.946;21.002;2023-11-19T09:51:54;33.00;31.00;18.00
50866;PMS7003;36839;51.946;21.002;2023-11-19T09:54:36;33.00;28.00;18.00
50866;PMS7003;36839;51.946;21.002;2023-11-19T09:57:06;35.00;27.00;18.00
50866;PMS7003;36839;51.946;21.002;2023-11-19T09:59:46;38.00;31.50;17.50
50866;PMS7003;36839;51.946;21.002;2023-11-19T10:02:21;40.50;32.00;20.00
50866;PMS7003;36839;51.946;21.002;2023-11-19T10:04:52;31.50;26.00;18.00
50866;PMS7003;36839;51.946;21.002;2023-11-19T10:07:21;32.50;25.00;17.00
50866;PMS7003;36839;51.946;21.002;2023-11-19T10:09:53;29.00;27.00;15.00
50866;PMS7003;36839;51.946;21.002;2023-11-19T10:12:44;37.50;27.50;18.50
50866;PMS7003;36839;51.946;21.002;2023-11-19T10:15:39;28.33;24.67;14.00
50866;PMS7003;36839;51.946;21.002;2023-11-19T10:18:17;29.00;23.50;14.50
50866;PMS7003;36839;51.946;21.002;2023-11-19T10:20:59;31.00;28.50;18.00
50866;PMS7003;36839;51.946;21.002;2023-11-19T10:23:26;35.50;29.50;18.00
50866;PMS7003;36839;51.946;21.002;2023-11-19T10:26:02;27.50;24.50;16.00
50866;PMS7003;36839;51.946;21.002;2023-11-19T10:28:38;32.00;27.00;17.00
50866;PMS7003;36839;51.946;21.002;2023-11-19T10:33:48;37.00;30.00;19.00
50866;PMS7003;36839;51.946;21.002;2023-11-19T10:36:22;38.00;32.00;19.00
50866;PMS7003;36839;51.946;21.002;2023-11-19T10:39:07;36.00;28.50;19.00
50866;PMS7003;36839;51.946;21.002;2023-11-19T10:41:41;36.00;29.00;19.00
50866;PMS7003;36839;51.946;21.002;2023-11-19T10:44:12;29.00;25.00;18.00
50866;PMS7003;36839;51.946;21.002;2023-11-19T10:47:13;26.00;21.00;14.00
50866;PMS7003;36839;51.946;21.002;2023-11-19T10:49:49;40.00;28.00;19.00
50866;PMS7003;36839;51.946;21.002;2023-11-19T10:52:35;37.00;30.00;17.00
50866;PMS7003;36839;51.946;21.002;2023-11-19T10:55:28;41.00;34.00;21.00
50866;PMS7003;36839;51.946;21.002;2023-11-19T10:58:16;49.00;33.00;21.00
50866;PMS7003;36839;51.946;21.002;2023-11-19T11:03:38;39.50;32.50;20.50
50866;PMS7003;36839;51.946;21.002;2023-11-19T11:06:20;39.50;27.00;18.00
50866;PMS7003;36839;51.946;21.002;2023-11-19T11:14:20;43.00;34.00;23.00
50866;PMS7003;36839;51.946;21.002;2023-11-19T11:17:15;44.00;35.00;22.00
50866;PMS7003;36839;51.946;21.002;2023-11-19T11:20:09;51.50;43.00;27.00
50866;PMS7003;36839;51.946;21.002;2023-11-19T11:22:50;37.00;32.00;21.00
50866;PMS7003;36839;51.946;21.002;2023-11-19T11:25:56;38.50;31.50;21.50
50866;PMS7003;36839;51.946;21.002;2023-11-19T11:28:56;41.00;28.00;19.00
50866;PMS7003;36839;51.946;21.002;2023-11-19T11:37:44;31.00;29.00;20.00
50866;PMS7003;36839;51.946;21.002;2023-11-19T11:40:46;37.50;28.00;18.00
50866;PMS7003;36839;51.946;21.002;2023-11-19T11:44:05;34.00;30.50;19.50
50866;PMS7003;36839;51.946;21.002;2023-11-19T11:49:19;29.00;25.00;18.00
50866;PMS7003;36839;51.946;21.002;2023-11-19T11:51:59;30.00;29.00;17.00
50866;PMS7003;36839;51.946;21.002;2023-11-19T11:54:38;26.00;21.00;13.00
50866;PMS7003;36839;51.946;21.002;2023-11-19T11:57:26;27.00;23.50;15.00
50866;PMS7003;36839;51.946;21.002;2023-11-19T12:00:10;33.00;28.00;19.00
50866;PMS7003;36839;51.946;21.002;2023-11-19T12:02:50;28.00;23.00;16.00
50866;PMS7003;36839;51.946;21.002;2023-11-19T12:05:30;39.50;32.00;19.00
50866;PMS7003;36839;51.946;21.002;2023-11-19T12:08:18;32.00;24.00;17.00
50866;PMS7003;36839;51.946;21.002;2023-11-19T12:10:57;43.00;29.00;15.00
50866;PMS7003;36839;51.946;21.002;2023-11-19T12:16:53;37.00;33.00;21.50
50866;PMS7003;36839;51.946;21.002;2023-11-19T12:19:48;29.50;23.50;16.50
50866;PMS7003;36839;51.946;21.002;2023-11-19T12:22:19;33.00;28.67;19.00
50866;PMS7003;36839;51.946;21.002;2023-11-19T12:24:53;42.50;31.50;21.00
50866;PMS7003;36839;51.946;21.002;2023-11-19T12:27:36;27.00;24.33;15.33
50866;PMS7003;36839;51.946;21.002;2023-11-19T12:30:22;43.00;34.00;20.33
50866;PMS7003;36839;51.946;21.002;2023-11-19T12:33:10;34.00;30.00;19.00
50866;PMS7003;36839;51.946;21.002;2023-11-19T12:35:59;34.00;30.00;17.00
50866;PMS7003;36839;51.946;21.002;2023-11-19T12:38:41;27.00;24.00;18.00
50866;PMS7003;36839;51.946;21.002;2023-11-19T12:41:08;35.50;28.00;18.50
50866;PMS7003;36839;51.946;21.002;2023-11-19T12:44:01;37.00;32.00;21.00
50866;PMS7003;36839;51.946;21.002;2023-11-19T12:46:58;39.00;33.50;20.00
50866;PMS7003;36839;51.946;21.002;2023-11-19T12:49:38;38.00;32.00;20.00
50866;PMS7003;36839;51.946;21.002;2023-11-19T12:52:11;40.00;32.50;22.00
50866;PMS7003;36839;51.946;21.002;2023-11-19T12:54:58;39.00;36.00;23.00
50866;PMS7003;36839;51.946;21.002;2023-11-19T12:57:42;39.00;33.00;22.00
50866;PMS7003;36839;51.946;21.002;2023-11-19T13:00:24;39.00;33.00;21.00
50866;PMS7003;36839;51.946;21.002;2023-11-19T13:02:53;36.50;29.50;19.00
50866;PMS7003;36839;51.946;21.002;2023-11-19T13:08:07;44.00;32.00;22.00
50866;PMS7003;36839;51.946;21.002;2023-11-19T13:10:53;39.33;31.00;19.00
50866;PMS7003;36839;51.946;21.002;2023-11-19T13:13:24;31.00;27.00;18.00
50866;PMS7003;36839;51.946;21.002;2023-11-19T13:16:19;35.50;29.50;17.00
50866;PMS7003;36839;51.946;21.002;2023-11-19T13:18:51;35.50;29.50;20.50
50866;PMS7003;36839;51.946;21.002;2023-11-19T13:21:25;30.00;30.00;20.33
50866;PMS7003;36839;51.946;21.002;2023-11-19T13:24:09;32.50;27.00;16.50
50866;PMS7003;36839;51.946;21.002;2023-11-19T13:26:45;35.00;29.00;20.00
50866;PMS7003;36839;51.946;21.002;2023-11-19T13:29:42;37.00;29.00;15.00
50866;PMS7003;36839;51.946;21.002;2023-11-19T13:32:25;35.00;31.00;19.00
50866;PMS7003;36839;51.946;21.002;2023-11-19T13:35:05;46.00;35.00;20.00
50866;PMS7003;36839;51.946;21.002;2023-11-19T13:37:45;43.00;36.00;22.00
50866;PMS7003;36839;51.946;21.002;2023-11-19T13:40:37;38.00;30.00;20.00
50866;PMS7003;36839;51.946;21.002;2023-11-19T13:43:11;30.50;25.00;14.00
50866;PMS7003;36839;51.946;21.002;2023-11-19T13:45:43;39.00;34.00;22.00
50866;PMS7003;36839;51.946;21.002;2023-11-19T13:48:31;40.67;30.33;20.00
50866;PMS7003;36839;51.946;21.002;2023-11-19T13:51:14;37.00;31.50;20.50
50866;PMS7003;36839;51.946;21.002;2023-11-19T13:53:53;41.00;34.00;22.50
50866;PMS7003;36839;51.946;21.002;2023-11-19T13:56:54;43.00;34.00;20.00
50866;PMS7003;36839;51.946;21.002;2023-11-19T14:01:58;32.50;31.50;21.00
50866;PMS7003;36839;51.946;21.002;2023-11-19T14:04:28;33.00;32.00;17.00
50866;PMS7003;36839;51.946;21.002;2023-11-19T14:07:12;43.00;37.00;23.00
50866;PMS7003;36839;51.946;21.002;2023-11-19T14:09:54;38.00;33.50;20.50
50866;PMS7003;36839;51.946;21.002;2023-11-19T14:12:30;41.00;33.00;22.00
50866;PMS7003;36839;51.946;21.002;2023-11-19T14:14:58;43.50;35.00;21.00
50866;PMS7003;36839;51.946;21.002;2023-11-19T14:17:57;40.00;34.00;22.00
50866;PMS7003;36839;51.946;21.002;2023-11-19T14:20:38;47.50;34.00;22.00
50866;PMS7003;36839;51.946;21.002;2023-11-19T14:23:21;39.00;32.33;21.00
50866;PMS7003;36839;51.946;21.002;2023-11-19T14:26:13;35.50;33.00;20.50
50866;PMS7003;36839;51.946;21.002;2023-11-19T14:29:17;47.00;36.00;22.00
50866;PMS7003;36839;51.946;21.002;2023-11-19T14:32:44;41.00;35.50;22.00
50866;PMS7003;36839;51.946;21.002;2023-11-19T14:35:21;40.50;33.00;21.50
50866;PMS7003;36839;51.946;21.002;2023-11-19T14:38:36;40.00;33.00;21.00
50866;PMS7003;36839;51.946;21.002;2023-11-19T14:54:26;38.00;33.00;21.00
50866;PMS7003;36839;51.946;21.002;2023-11-19T14:57:47;43.50;34.00;21.00
50866;PMS7003;36839;51.946;21.002;2023-11-19T15:00:42;42.00;35.00;21.00
50866;PMS7003;36839;51.946;21.002;2023-11-19T15:03:51;47.00;37.00;22.00
50866;PMS7003;36839;51.946;21.002;2023-11-19T15:06:47;46.00;36.00;22.00
50866;PMS7003;36839;51.946;21.002;2023-11-19T15:09:57;39.00;32.00;20.00
50866;PMS7003;36839;51.946;21.002;2023-11-19T15:13:19;41.00;31.00;21.00
50866;PMS7003;36839;51.946;21.002;2023-11-19T15:16:06;36.00;32.00;20.00
50866;PMS7003;36839;51.946;21.002;2023-11-19T15:19:21;40.00;31.00;22.00
50866;PMS7003;36839;51.946;21.002;2023-11-19T15:22:49;37.50;34.50;23.00
50866;PMS7003;36839;51.946;21.002;2023-11-19T15:25:44;39.00;31.00;19.00
50866;PMS7003;36839;51.946;21.002;2023-11-19T15:31:23;37.00;28.00;20.00
50866;PMS7003;36839;51.946;21.002;2023-11-19T15:34:41;38.00;34.50;22.50
50866;PMS7003;36839;51.946;21.002;2023-11-19T15:40:52;38.00;30.00;21.00
50866;PMS7003;36839;51.946;21.002;2023-11-19T15:43:57;49.00;34.00;21.00
50866;PMS7003;36839;51.946;21.002;2023-11-19T15:46:48;48.00;37.00;20.00
50866;PMS7003;36839;51.946;21.002;2023-11-19T15:49:33;44.50;35.50;23.00
50866;PMS7003;36839;51.946;21.002;2023-11-19T15:52:29;42.00;33.50;22.00
50866;PMS7003;36839;51.946;21.002;2023-11-19T15:55:08;44.50;35.50;21.00
50866;PMS7003;36839;51.946;21.002;2023-11-19T16:01:15;35.00;27.00;11.00
50866;PMS7003;36839;51.946;21.002;2023-11-19T16:06:40;41.00;32.50;21.00
50866;PMS7003;36839;51.946;21.002;2023-11-19T16:09:25;33.50;28.00;21.00
50866;PMS7003;36839;51.946;21.002;2023-11-19T16:15:19;40.50;33.50;20.00
50866;PMS7003;36839;51.946;21.002;2023-11-19T16:18:03;33.50;30.50;20.50
50866;PMS7003;36839;51.946;21.002;2023-11-19T16:20:45;42.00;33.00;22.00
50866;PMS7003;36839;51.946;21.002;2023-11-19T16:23:34;49.00;35.50;20.50
50866;PMS7003;36839;51.946;21.002;2023-11-19T16:26:26;49.00;33.50;19.50
50866;PMS7003;36839;51.946;21.002;2023-11-19T16:29:22;40.50;35.50;19.00
50866;PMS7003;36839;51.946;21.002;2023-11-19T16:32:06;33.00;30.00;18.00
50866;PMS7003;36839;51.946;21.002;2023-11-19T16:34:48;45.00;36.00;23.00
50866;PMS7003;36839;51.946;21.002;2023-11-19T16:37:34;34.00;30.00;22.00
50866;PMS7003;36839;51.946;21.002;2023-11-19T16:40:02;46.00;35.00;21.00
50866;PMS7003;36839;51.946;21.002;2023-11-19T16:42:33;44.00;30.00;19.00
50866;PMS7003;36839;51.946;21.002;2023-11-19T16:45:11;38.00;25.00;16.00
50866;PMS7003;36839;51.946;21.002;2023-11-19T16:47:44;28.00;28.00;19.00
50866;PMS7003;36839;51.946;21.002;2023-11-19T16:50:16;37.00;30.00;20.50